createdAt,value
2023-03-05T09:23:28.725Z,24.35
2023-03-05T11:31:27.743Z,24.49
2023-03-05T11:32:27.664Z,24.53
2023-03-05T11:33:27.554Z,24.53
2023-03-05T11:34:27.534Z,24.52
2023-03-05T11:35:27.589Z,24.52
2023-03-05T11:36:27.518Z,24.50
2023-03-05T11:37:27.542Z,24.53
2023-03-05T11:38:27.520Z,24.53
2023-03-05T11:39:27.494Z,24.50
2023-03-05T11:40:27.479Z,24.50
2023-03-05T11:41:27.472Z,24.49
2023-03-05T11:42:27.464Z,24.53
2023-03-05T11:43:27.459Z,24.50
2023-03-05T11:44:27.455Z,24.50
2023-03-05T11:45:27.442Z,24.52
2023-03-05T11:46:27.588Z,24.52
2023-03-05T11:47:27.419Z,24.49
2023-03-05T11:48:27.410Z,24.48
2023-03-05T11:49:27.417Z,24.48
2023-03-05T11:50:27.394Z,24.48
2023-03-05T11:51:27.414Z,24.46
2023-03-05T11:52:27.373Z,24.46
2023-03-05T11:53:27.364Z,24.50
2023-03-05T11:54:27.357Z,24.50
2023-03-05T11:55:27.352Z,24.50
2023-03-05T11:56:27.354Z,24.48
2023-03-05T11:57:27.331Z,24.48
2023-03-05T11:58:27.323Z,24.48
2023-03-05T11:59:27.314Z,24.46
2023-03-05T12:00:27.307Z,24.44
2023-03-05T12:01:27.309Z,24.44
2023-03-05T12:02:27.297Z,24.43
2023-03-05T12:03:27.332Z,24.46
2023-03-05T12:04:27.270Z,24.42
2023-03-05T12:05:27.269Z,24.43
2023-03-05T12:06:27.255Z,24.43
2023-03-05T12:07:28.375Z,24.42
2023-03-05T12:08:27.233Z,24.40
2023-03-05T12:09:27.258Z,24.42
2023-03-05T12:10:27.239Z,24.42
2023-03-05T12:11:27.210Z,24.38
2023-03-05T12:12:27.206Z,24.40
2023-03-05T12:13:27.195Z,24.38
2023-03-05T12:14:27.190Z,24.40
2023-03-05T12:15:27.181Z,24.40
2023-03-05T12:16:27.257Z,24.40
2023-03-05T12:17:27.156Z,24.39
2023-03-05T12:18:27.156Z,24.40
2023-03-05T12:19:27.139Z,24.40
2023-03-05T12:20:27.187Z,24.39
2023-03-05T12:21:27.303Z,24.42
2023-03-05T12:22:27.130Z,24.40
2023-03-05T12:23:27.130Z,24.40
2023-03-05T12:24:28.498Z,24.40
2023-03-05T12:25:27.101Z,24.40
2023-03-05T12:26:27.097Z,24.39
2023-03-05T12:27:27.087Z,24.36
2023-03-05T12:28:27.076Z,24.40
2023-03-05T12:29:27.067Z,24.39
2023-03-05T12:30:27.055Z,24.39
2023-03-05T12:31:27.155Z,24.40
2023-03-05T12:32:27.039Z,24.40
2023-03-05T12:33:27.030Z,24.42
2023-03-05T12:34:27.030Z,24.40
2023-03-05T12:35:27.037Z,24.38
2023-03-05T12:36:27.007Z,24.40
2023-03-05T12:37:26.995Z,24.40
2023-03-05T12:38:27.339Z,24.40
2023-03-05T12:39:27.000Z,24.43
